createdAt,value
2019-05-02T00:00:18.127Z,4.7
2019-05-02T00:02:17.779Z,5.3
2019-05-02T00:04:19.915Z,5.2
2019-05-02T00:06:18.982Z,4.3
2019-05-02T00:08:18.332Z,4.7
2019-05-02T00:10:19.850Z,5
2019-05-02T00:12:17.716Z,5.6
2019-05-02T00:14:19.431Z,5.2
2019-05-02T00:16:18.416Z,4.9
2019-05-02T00:18:18.096Z,5
2019-05-02T00:20:21.002Z,4.6
2019-05-02T00:22:18.502Z,5.5
2019-05-02T00:24:19.279Z,5.7
2019-05-02T00:26:18.493Z,5.6
2019-05-02T00:28:18.186Z,4.4
2019-05-02T00:30:17.892Z,3.9
2019-05-02T00:32:18.210Z,5.2
2019-05-02T00:34:19.328Z,5.2
2019-05-02T00:36:18.837Z,5.1
2019-05-02T00:38:18.235Z,4.7
2019-05-02T00:40:20.039Z,5.4
2019-05-02T00:42:21.976Z,5
2019-05-02T00:44:19.403Z,5.8
2019-05-02T00:46:18.574Z,5.1
2019-05-02T00:48:19.189Z,5.2
2019-05-02T00:50:17.998Z,4.7
2019-05-02T00:52:17.732Z,5.5
2019-05-02T00:54:19.043Z,5.8
2019-05-02T00:56:18.878Z,5.4
2019-05-02T00:58:18.371Z,4.8
2019-05-02T01:00:19.652Z,5.1
2019-05-02T01:02:17.929Z,5.6
2019-05-02T01:04:23.234Z,5.3
2019-05-02T01:06:19.306Z,4.7
2019-05-02T01:08:18.709Z,5.9
2019-05-02T01:10:21.176Z,4.9
2019-05-02T01:12:26.046Z,6.4
2019-05-02T01:14:18.008Z,5.4
2019-05-02T01:16:19.037Z,5.2
2019-05-02T01:18:17.402Z,5.8
2019-05-02T01:20:22.117Z,5
2019-05-02T01:22:18.850Z,5.2
2019-05-02T01:24:18.292Z,5.9
2019-05-02T01:26:18.030Z,4.3
2019-05-02T01:28:18.827Z,4.7
2019-05-02T01:30:17.462Z,5.7
2019-05-02T01:32:19.260Z,6
2019-05-02T01:34:19.332Z,5
2019-05-02T01:36:18.501Z,6.8
2019-05-02T01:38:18.302Z,5.9
2019-05-02T01:40:18.978Z,5.8
2019-05-02T01:42:17.765Z,5.8
2019-05-02T01:44:17.505Z,5.5
2019-05-02T01:46:22.151Z,5.9
2019-05-02T01:48:18.474Z,6.3
2019-05-02T01:50:18.297Z,5.7
2019-05-02T01:52:18.834Z,6.2
2019-05-02T01:54:17.758Z,6.7
2019-05-02T01:56:17.557Z,5.8
2019-05-02T01:58:20.691Z,5.3
2019-05-02T02:00:18.376Z,4.9
2019-05-02T02:02:18.035Z,6.4
2019-05-02T02:04:20.913Z,6.6
2019-05-02T02:06:17.457Z,5.4
2019-05-02T02:08:19.265Z,6.6
2019-05-02T02:10:19.717Z,6.4
2019-05-02T02:12:18.304Z,5.3
2019-05-02T02:14:18.670Z,5.7
2019-05-02T02:16:17.670Z,6.1
2019-05-02T02:18:22.069Z,5.1
2019-05-02T02:20:18.958Z,5.1
2019-05-02T02:22:18.380Z,5.8
2019-05-02T02:24:21.040Z,5.9
2019-05-02T02:26:17.721Z,5.9
2019-05-02T02:28:17.454Z,6.2
2019-05-02T02:30:24.258Z,4.2
2019-05-02T02:32:26.587Z,5.3
2019-05-02T02:34:21.119Z,5.8
2019-05-02T02:36:29.494Z,6.4
2019-05-02T02:38:18.013Z,5.9
2019-05-02T02:40:17.850Z,4.7
2019-05-02T02:42:17.679Z,4.7
2019-05-02T02:44:19.409Z,4.3
2019-05-02T02:46:18.638Z,5.8
2019-05-02T02:48:18.243Z,4.5
2019-05-02T02:50:17.831Z,5.4
2019-05-02T02:52:17.537Z,5.5
2019-05-02T02:54:19.248Z,4.7
2019-05-02T02:56:18.481Z,4.4
2019-05-02T02:58:18.126Z,4.1
2019-05-02T03:00:17.743Z,4.7
2019-05-02T03:02:17.532Z,4.6
2019-05-02T03:04:19.305Z,4.3
2019-05-02T03:06:18.630Z,5
2019-05-02T03:08:18.264Z,4.8
2019-05-02T03:10:17.920Z,4
2019-05-02T03:12:17.717Z,4.4
2019-05-02T03:14:19.412Z,4.1
2019-05-02T03:16:18.606Z,4.4
2019-05-02T03:18:18.231Z,4.9
2019-05-02T03:20:17.927Z,4.4
2019-05-02T03:22:17.552Z,3.6
2019-05-02T03:24:19.289Z,5.4
2019-05-02T03:26:18.592Z,4.8
2019-05-02T03:28:20.290Z,3.9
2019-05-02T03:30:31.265Z,4.5
2019-05-02T03:32:31.299Z,4.4
2019-05-02T03:34:19.250Z,4.1
2019-05-02T03:36:28.464Z,6
2019-05-02T03:38:18.265Z,4.1
2019-05-02T03:40:18.085Z,4.4
2019-05-02T03:42:17.780Z,5.4
2019-05-02T03:44:24.484Z,4.1
2019-05-02T03:46:20.382Z,4.6
2019-05-02T03:48:25.177Z,5.2
2019-05-02T03:50:30.641Z,4.8
2019-05-02T03:52:17.582Z,5.2
2019-05-02T03:54:20.083Z,5
2019-05-02T03:56:18.458Z,4
2019-05-02T03:58:18.093Z,3.7
2019-05-02T04:00:20.673Z,5.3
2019-05-02T04:02:20.255Z,4.3
2019-05-02T04:04:20.459Z,4.5
2019-05-02T04:06:20.797Z,4.8
2019-05-02T04:08:20.598Z,3.7
2019-05-02T04:10:19.621Z,5.1
2019-05-02T04:12:21.182Z,4.2
2019-05-02T04:14:36.039Z,4.3
2019-05-02T04:16:19.126Z,5
2019-05-02T04:18:18.621Z,3.5
2019-05-02T04:20:18.345Z,4.2
2019-05-02T04:22:18.176Z,4.3
2019-05-02T04:24:17.709Z,4.3
2019-05-02T04:26:19.414Z,3.9
2019-05-02T04:28:18.820Z,3.7
2019-05-02T04:30:18.336Z,4
2019-05-02T04:32:18.049Z,4.5
2019-05-02T04:34:18.095Z,3.4
2019-05-02T04:36:17.961Z,4.2
2019-05-02T04:38:23.825Z,4.5
2019-05-02T04:40:18.810Z,4.1
2019-05-02T04:42:22.654Z,3.7
2019-05-02T04:44:18.894Z,3.5
2019-05-02T04:46:25.524Z,3.6
2019-05-02T04:48:19.422Z,4.6
2019-05-02T04:50:24.937Z,4.2
2019-05-02T04:52:20.978Z,4.1
2019-05-02T04:54:25.612Z,3.8
2019-05-02T04:56:18.450Z,4.7
2019-05-02T04:58:26.817Z,3.2
2019-05-02T05:00:19.275Z,3.8
2019-05-02T05:02:20.794Z,3.2
2019-05-02T05:04:18.278Z,4.3
2019-05-02T05:06:18.800Z,4.3
2019-05-02T05:08:26.153Z,3.6
2019-05-02T05:10:18.491Z,4
2019-05-02T05:12:19.398Z,2.9
2019-05-02T05:14:18.930Z,3.8
2019-05-02T05:16:18.824Z,3.5
2019-05-02T05:18:18.187Z,4.2
2019-05-02T05:20:18.352Z,4.3
2019-05-02T05:22:18.398Z,3.9
2019-05-02T05:24:19.240Z,4.7
2019-05-02T05:26:18.487Z,2.6
2019-05-02T05:28:19.953Z,3.4
2019-05-02T05:30:18.605Z,4.2
2019-05-02T05:32:17.950Z,3.3
2019-05-02T05:34:22.720Z,4.2
2019-05-02T05:36:19.998Z,3.7
2019-05-02T05:38:22.867Z,3.4
2019-05-02T05:40:22.467Z,4.3
2019-05-02T05:42:23.088Z,3.2
2019-05-02T05:44:18.139Z,2.7
2019-05-02T05:46:17.926Z,2.8
2019-05-02T05:48:19.254Z,3.3
2019-05-02T05:50:18.695Z,3.9
2019-05-02T05:52:18.512Z,3.3
2019-05-02T05:54:18.155Z,3.2
2019-05-02T05:56:18.193Z,3.9
2019-05-02T05:58:18.692Z,3.7
2019-05-02T06:00:22.880Z,3.9
2019-05-02T06:02:18.747Z,3.2
2019-05-02T06:04:23.249Z,3.2
2019-05-02T06:06:22.304Z,2.9
2019-05-02T06:08:18.319Z,2.9
2019-05-02T06:10:17.557Z,4
2019-05-02T06:12:19.322Z,3.1
2019-05-02T06:14:19.869Z,3.3
2019-05-02T06:16:18.214Z,3
2019-05-02T06:18:18.047Z,2.8
2019-05-02T06:20:17.753Z,2.9
2019-05-02T06:22:24.107Z,3.1
2019-05-02T06:24:19.360Z,3.4
2019-05-02T06:26:18.756Z,3.4
2019-05-02T06:28:18.377Z,2.6
2019-05-02T06:30:18.088Z,3.5
2019-05-02T06:32:19.120Z,3.1
2019-05-02T06:34:17.427Z,3.8
2019-05-02T06:36:19.029Z,3
2019-05-02T06:38:21.509Z,2.5
2019-05-02T06:40:18.266Z,3.7
2019-05-02T06:42:17.993Z,4.2
2019-05-02T06:44:18.335Z,3
2019-05-02T06:46:21.575Z,3.7
2019-05-02T06:48:19.278Z,2.9
2019-05-02T06:50:18.640Z,3
2019-05-02T06:52:18.297Z,2.6
2019-05-02T06:54:22.364Z,2.8
2019-05-02T06:56:17.533Z,2.5
2019-05-02T06:58:19.304Z,2.4
2019-05-02T07:00:18.711Z,3
2019-05-02T07:02:18.281Z,3.2
2019-05-02T07:04:22.752Z,3
2019-05-02T07:06:17.889Z,3.5
2019-05-02T07:08:19.501Z,2.3
2019-05-02T07:10:19.934Z,3.2
2019-05-02T07:12:18.345Z,3.1
2019-05-02T07:14:18.506Z,3.5
2019-05-02T07:16:36.756Z,3.8
2019-05-02T07:18:19.446Z,3.9
2019-05-02T07:20:18.981Z,3.9
2019-05-02T07:22:18.411Z,3.9
2019-05-02T07:24:18.072Z,3.8
2019-05-02T07:26:20.931Z,4.2
2019-05-02T07:28:17.444Z,4.2
2019-05-02T07:30:19.254Z,3.8
2019-05-02T07:32:19.142Z,4.4
2019-05-02T07:34:18.206Z,4.5
2019-05-02T07:36:17.951Z,5.1
2019-05-02T07:38:20.102Z,4.5
2019-05-02T07:40:19.342Z,4.9
2019-05-02T07:42:18.708Z,5.1
2019-05-02T07:44:18.334Z,5
2019-05-02T07:46:20.908Z,5.1
2019-05-02T07:48:19.053Z,5.4
2019-05-02T07:50:17.493Z,5.2
2019-05-02T07:52:19.288Z,6.3
2019-05-02T07:54:19.215Z,5.5
2019-05-02T07:56:18.968Z,6.3
2019-05-02T07:58:18.140Z,4.6
2019-05-02T08:00:17.807Z,4.6
2019-05-02T08:02:20.154Z,5.2
2019-05-02T08:04:19.299Z,5.4
2019-05-02T08:06:18.551Z,6.9
2019-05-02T08:08:18.274Z,5.8
2019-05-02T08:10:21.830Z,7.1
2019-05-02T08:12:17.666Z,5.1
2019-05-02T08:14:19.412Z,6.9
2019-05-02T08:16:22.297Z,6.2
2019-05-02T08:18:18.481Z,5.8
2019-05-02T08:20:18.979Z,5.7
2019-05-02T08:22:17.857Z,5.3
2019-05-02T08:24:17.471Z,6.4
2019-05-02T08:26:21.549Z,5.8
2019-05-02T08:28:18.550Z,6.4
2019-05-02T08:30:18.375Z,6.3
2019-05-02T08:32:18.085Z,5.6
2019-05-02T08:34:17.744Z,5.6
2019-05-02T08:36:17.439Z,5.4
2019-05-02T08:38:19.251Z,5.8
2019-05-02T08:40:18.836Z,4.9
2019-05-02T08:42:18.241Z,5.8
2019-05-02T08:44:18.100Z,5.1
2019-05-02T08:46:17.679Z,6.2
2019-05-02T08:48:19.406Z,5.7
2019-05-02T08:50:18.982Z,5.2
2019-05-02T08:52:18.386Z,5.9
2019-05-02T08:54:18.067Z,6.5
2019-05-02T08:56:21.252Z,6.6
2019-05-02T08:58:19.241Z,5.6
2019-05-02T09:00:18.703Z,6.7
2019-05-02T09:02:21.017Z,5.4
2019-05-02T09:04:18.183Z,7.1
2019-05-02T09:06:22.322Z,6.1
2019-05-02T09:08:19.461Z,6
2019-05-02T09:10:18.726Z,6.3
2019-05-02T09:12:19.990Z,6.7
2019-05-02T09:14:17.884Z,7.1
2019-05-02T09:16:21.456Z,6.8
2019-05-02T09:18:21.774Z,6.5
2019-05-02T09:20:20.701Z,7.6
2019-05-02T09:22:18.580Z,6.6
2019-05-02T09:24:21.256Z,6.3
2019-05-02T09:26:26.336Z,7.2
2019-05-02T09:28:22.316Z,7.1
2019-05-02T09:30:22.462Z,7.3
2019-05-02T09:32:22.577Z,6.6
2019-05-02T09:34:22.589Z,6.8
2019-05-02T09:36:18.865Z,8.1
2019-05-02T09:38:18.320Z,6.3
2019-05-02T09:40:18.089Z,7.8
2019-05-02T09:42:19.094Z,7.6
2019-05-02T09:44:18.764Z,6.8
2019-05-02T09:46:19.059Z,7.8
2019-05-02T09:48:22.537Z,7.6
2019-05-02T09:50:20.441Z,6.2
2019-05-02T09:52:17.915Z,7.2
2019-05-02T09:54:17.556Z,7.5
2019-05-02T09:56:18.932Z,7.6
2019-05-02T09:58:21.148Z,7.5
2019-05-02T10:00:18.194Z,7.3
2019-05-02T10:02:17.900Z,6.8
2019-05-02T10:04:17.460Z,7.4
2019-05-02T10:06:19.174Z,7.2
2019-05-02T10:08:18.587Z,7.3
2019-05-02T10:10:18.399Z,6.5
2019-05-02T10:12:17.979Z,6.7
2019-05-02T10:14:17.677Z,7.2
2019-05-02T10:16:17.886Z,8.1
2019-05-02T10:18:19.521Z,9
2019-05-02T10:20:18.372Z,7.9
2019-05-02T10:22:18.005Z,7.4
2019-05-02T10:24:17.647Z,6.4
2019-05-02T10:26:22.072Z,5.9
2019-05-02T10:28:18.236Z,7.6
2019-05-02T10:30:17.932Z,7.8
2019-05-02T10:32:17.571Z,7.1
2019-05-02T10:34:19.336Z,8
2019-05-02T10:36:19.507Z,8.7
2019-05-02T10:38:19.501Z,7.3
2019-05-02T10:40:18.084Z,6.7
2019-05-02T10:42:17.747Z,7.6
2019-05-02T10:44:17.510Z,9.1
2019-05-02T10:46:19.017Z,7.7
2019-05-02T10:48:25.637Z,7.8
2019-05-02T10:50:18.295Z,7.3
2019-05-02T10:52:21.472Z,7.9
2019-05-02T10:54:20.415Z,8.2
2019-05-02T10:56:17.443Z,8.4
2019-05-02T10:58:23.855Z,6.9
2019-05-02T11:00:18.621Z,8.3
2019-05-02T11:02:18.180Z,6.8
2019-05-02T11:04:17.858Z,7.6
2019-05-02T11:06:17.493Z,5.5
2019-05-02T11:08:19.255Z,6.8
2019-05-02T11:10:18.831Z,7.5
2019-05-02T11:12:21.697Z,7.7
2019-05-02T11:14:17.932Z,7.3
2019-05-02T11:16:17.704Z,7
2019-05-02T11:18:19.440Z,8.1
2019-05-02T11:20:18.888Z,7.2
2019-05-02T11:22:18.289Z,7.6
2019-05-02T11:24:18.060Z,6.8
2019-05-02T11:26:21.371Z,7
2019-05-02T11:28:17.472Z,6.6
2019-05-02T11:30:22.187Z,5.9
2019-05-02T11:32:18.946Z,6.6
2019-05-02T11:34:18.524Z,6.6
2019-05-02T11:36:18.247Z,6.1
2019-05-02T11:38:31.993Z,7.1
2019-05-02T11:40:17.759Z,7.1
2019-05-02T11:42:21.870Z,7.4
2019-05-02T11:44:19.118Z,6
2019-05-02T11:46:18.546Z,8
2019-05-02T11:48:19.780Z,6.9
2019-05-02T11:50:17.976Z,6.3
2019-05-02T11:52:17.679Z,6.7
2019-05-02T11:54:19.437Z,6.4
2019-05-02T11:56:18.658Z,7.7
2019-05-02T11:58:18.263Z,7.5
2019-05-02T12:00:18.071Z,6.2
2019-05-02T12:02:19.018Z,5.7
2019-05-02T12:04:17.496Z,7
2019-05-02T12:06:19.599Z,7.9
2019-05-02T12:08:18.614Z,6.7
2019-05-02T12:10:18.440Z,6.9
2019-05-02T12:12:17.997Z,7.7
2019-05-02T12:14:17.762Z,6.5
2019-05-02T12:16:17.577Z,7.1
2019-05-02T12:18:20.539Z,6.8
2019-05-02T12:20:18.351Z,6.9
2019-05-02T12:22:18.147Z,8.1
2019-05-02T12:24:17.625Z,7
2019-05-02T12:26:19.416Z,7.3
2019-05-02T12:28:18.853Z,6.9
2019-05-02T12:30:18.376Z,6.7
2019-05-02T12:32:17.984Z,6.7
2019-05-02T12:34:17.733Z,7.1
2019-05-02T12:36:17.430Z,7.5
2019-05-02T12:38:19.081Z,6.6
2019-05-02T12:40:18.637Z,6.3
2019-05-02T12:42:18.427Z,6.5
2019-05-02T12:44:17.865Z,6.8
2019-05-02T12:46:17.621Z,5.9
2019-05-02T12:48:19.219Z,6.1
2019-05-02T12:50:18.680Z,5.7
2019-05-02T12:52:18.379Z,5.4
2019-05-02T12:54:17.972Z,5.3
2019-05-02T12:56:17.724Z,5.1
2019-05-02T12:58:17.474Z,6.5
2019-05-02T13:00:19.272Z,5.3
2019-05-02T13:02:18.690Z,5
2019-05-02T13:04:18.472Z,5.7
2019-05-02T13:06:18.260Z,6.1
2019-05-02T13:08:17.991Z,4.7
2019-05-02T13:10:17.878Z,5.2
2019-05-02T13:12:17.672Z,6.2
2019-05-02T13:14:19.883Z,5.2
2019-05-02T13:16:18.529Z,5
2019-05-02T13:18:18.590Z,4.9
2019-05-02T13:20:17.905Z,5.1
2019-05-02T13:22:17.585Z,4.6
2019-05-02T13:24:19.466Z,4.8
2019-05-02T13:26:21.947Z,6
2019-05-02T13:28:22.166Z,4.2
2019-05-02T13:30:17.974Z,5.4
2019-05-02T13:32:18.901Z,6.2
2019-05-02T13:34:19.435Z,5.1
2019-05-02T13:36:18.658Z,5.9
2019-05-02T13:38:18.289Z,5.5
2019-05-02T13:40:17.992Z,4.8
2019-05-02T13:42:17.691Z,5.7
2019-05-02T13:44:19.461Z,5.8
2019-05-02T13:46:18.987Z,5.5
2019-05-02T13:48:18.442Z,5.4
2019-05-02T13:50:18.187Z,6.8
2019-05-02T13:52:17.851Z,6.9
2019-05-02T13:54:17.615Z,5
2019-05-02T13:56:21.405Z,5.6
2019-05-02T13:58:21.428Z,6.7
2019-05-02T14:00:18.157Z,6.8
2019-05-02T14:02:17.835Z,6
2019-05-02T14:04:17.475Z,6.2
2019-05-02T14:06:21.863Z,6.8
2019-05-02T14:08:18.592Z,5.6
2019-05-02T14:10:18.309Z,6.4
2019-05-02T14:12:17.855Z,6.6
2019-05-02T14:14:17.501Z,7.5
2019-05-02T14:16:19.032Z,8.6
2019-05-02T14:18:21.655Z,8.9
2019-05-02T14:20:18.141Z,7.3
2019-05-02T14:22:17.754Z,7.1
2019-05-02T14:24:19.270Z,6.8
2019-05-02T14:26:28.130Z,6.8
2019-05-02T14:28:17.976Z,8
2019-05-02T14:30:17.682Z,8.1
2019-05-02T14:32:23.019Z,7.6
2019-05-02T14:34:19.008Z,8.5
2019-05-02T14:36:18.513Z,8.4
2019-05-02T14:38:18.126Z,7.2
2019-05-02T14:40:17.899Z,7.9
2019-05-02T14:42:21.980Z,7.8
2019-05-02T14:44:23.099Z,7
2019-05-02T14:46:18.851Z,8.5
2019-05-02T14:48:21.495Z,7.1
2019-05-02T14:50:24.022Z,7.7
2019-05-02T14:52:17.777Z,7.8
2019-05-02T14:54:19.489Z,7.1
2019-05-02T14:56:18.793Z,8.3
2019-05-02T14:58:18.386Z,8.1
2019-05-02T15:00:18.099Z,8.8
2019-05-02T15:02:17.804Z,7.5
2019-05-02T15:04:17.495Z,8.1
2019-05-02T15:06:19.009Z,7.8
2019-05-02T15:08:18.443Z,9
2019-05-02T15:10:18.234Z,8
2019-05-02T15:12:18.943Z,8.5
2019-05-02T15:14:19.754Z,8.4
2019-05-02T15:16:19.039Z,9.3
2019-05-02T15:18:19.208Z,7.8
2019-05-02T15:20:18.644Z,9.3
2019-05-02T15:22:18.182Z,8.4
2019-05-02T15:24:17.700Z,8.1
2019-05-02T15:26:17.526Z,9.1
2019-05-02T15:28:19.301Z,8.9
2019-05-02T15:30:18.809Z,7.5
2019-05-02T15:32:18.256Z,7.5
2019-05-02T15:34:17.894Z,8.3
2019-05-02T15:36:17.682Z,9
2019-05-02T15:38:25.421Z,9
2019-05-02T15:40:38.401Z,9
2019-05-02T15:42:22.656Z,8.2
2019-05-02T15:44:18.843Z,8.9
2019-05-02T15:46:23.471Z,9.4
2019-05-02T15:48:22.387Z,9.6
2019-05-02T15:50:21.813Z,8.8
2019-05-02T15:52:24.026Z,8.5
2019-05-02T15:54:19.189Z,8.7
2019-05-02T15:56:19.969Z,8.6
2019-05-02T15:58:23.606Z,8.6
2019-05-02T16:00:22.756Z,10.2
2019-05-02T16:02:22.748Z,8.9
2019-05-02T16:04:22.330Z,9.9
2019-05-02T16:06:21.683Z,9
2019-05-02T16:08:18.261Z,10
2019-05-02T16:10:18.081Z,8.3
2019-05-02T16:12:17.726Z,8.8
2019-05-02T16:14:19.456Z,8.6
2019-05-02T16:16:18.671Z,7.9
2019-05-02T16:18:18.336Z,9.3
2019-05-02T16:20:18.071Z,8.6
2019-05-02T16:22:17.823Z,8.6
2019-05-02T16:24:17.400Z,7
2019-05-02T16:26:18.899Z,7.6
2019-05-02T16:28:18.327Z,8.5
2019-05-02T16:30:18.065Z,7.9
2019-05-02T16:32:17.898Z,8.3
2019-05-02T16:34:17.523Z,8.5
2019-05-02T16:36:18.890Z,8
2019-05-02T16:38:18.307Z,7.9
2019-05-02T16:40:21.908Z,7.7
2019-05-02T16:42:17.825Z,8.7
2019-05-02T16:44:17.548Z,8.3
2019-05-02T16:46:18.683Z,8.3
2019-05-02T16:48:18.527Z,8.5
2019-05-02T16:50:18.710Z,8.7
2019-05-02T16:52:17.951Z,8.1
2019-05-02T16:54:17.731Z,8.5
2019-05-02T16:56:17.488Z,8.7
2019-05-02T16:58:19.295Z,8.7
2019-05-02T17:00:18.799Z,9
2019-05-02T17:02:18.280Z,8.2
2019-05-02T17:04:17.907Z,8.4
2019-05-02T17:06:22.282Z,8.1
2019-05-02T17:08:20.166Z,9.2
2019-05-02T17:10:18.573Z,8.3
2019-05-02T17:12:18.128Z,8.7
2019-05-02T17:14:17.880Z,8.3
2019-05-02T17:16:17.615Z,9.2
2019-05-02T17:18:19.312Z,8.5
2019-05-02T17:20:18.798Z,9.5
2019-05-02T17:22:21.808Z,9.4
2019-05-02T17:24:22.522Z,9.2
2019-05-02T17:26:17.692Z,8.6
2019-05-02T17:28:17.444Z,9.2
2019-05-02T17:30:19.327Z,9.2
2019-05-02T17:32:18.740Z,9.8
2019-05-02T17:34:22.936Z,8.9
2019-05-02T17:36:21.454Z,10.2
2019-05-02T17:38:18.959Z,10.9
2019-05-02T17:40:22.316Z,11.8
2019-05-02T17:42:22.187Z,10.4
2019-05-02T17:44:22.075Z,11.5
2019-05-02T17:46:21.050Z,13
2019-05-02T17:48:18.399Z,11.3
2019-05-02T17:50:19.477Z,10.8
2019-05-02T17:52:19.967Z,11.8
2019-05-02T17:54:21.764Z,10.8
2019-05-02T17:56:20.406Z,10.6
2019-05-02T17:58:18.541Z,12.5
2019-05-02T18:00:18.153Z,10.6
2019-05-02T18:02:17.835Z,11.4
2019-05-02T18:04:19.440Z,11.3
2019-05-02T18:06:29.780Z,10.5
2019-05-02T18:08:18.364Z,11.7
2019-05-02T18:10:22.069Z,12.7
2019-05-02T18:12:17.799Z,11.5
2019-05-02T18:14:21.035Z,13.2
2019-05-02T18:16:19.158Z,11.7
2019-05-02T18:18:18.667Z,11.4
2019-05-02T18:20:18.425Z,12.7
2019-05-02T18:22:23.931Z,11.5
2019-05-02T18:24:17.822Z,11.4
2019-05-02T18:26:17.539Z,12.4
2019-05-02T18:28:22.105Z,11.2
2019-05-02T18:30:22.689Z,12.1
2019-05-02T18:32:22.640Z,11.7
2019-05-02T18:34:20.928Z,12.4
2019-05-02T18:36:23.531Z,11.4
2019-05-02T18:38:20.809Z,11
2019-05-02T18:40:20.108Z,11.6
2019-05-02T18:42:21.813Z,10.1
2019-05-02T18:44:18.706Z,10.2
2019-05-02T18:46:19.910Z,9.9
2019-05-02T18:48:17.640Z,11.1
2019-05-02T18:50:19.435Z,11.2
2019-05-02T18:52:18.846Z,9.5
2019-05-02T18:54:18.267Z,10.6
2019-05-02T18:56:18.056Z,10.5
2019-05-02T18:58:17.664Z,9.5
2019-05-02T19:00:19.532Z,11.6
2019-05-02T19:02:18.598Z,11.5
2019-05-02T19:04:18.185Z,10.1
2019-05-02T19:06:17.820Z,10.9
2019-05-02T19:08:28.147Z,11
2019-05-02T19:10:19.143Z,11.3
2019-05-02T19:12:22.226Z,10.7
2019-05-02T19:14:22.136Z,11.9
2019-05-02T19:16:19.243Z,11.3
2019-05-02T19:18:19.664Z,11.7
2019-05-02T19:20:19.026Z,11.1
2019-05-02T19:22:18.354Z,11
2019-05-02T19:24:17.959Z,12
2019-05-02T19:26:17.672Z,10.5
2019-05-02T19:28:17.425Z,12.2
2019-05-02T19:30:24.341Z,10.1
2019-05-02T19:32:25.273Z,11.7
2019-05-02T19:34:22.636Z,11
2019-05-02T19:36:22.496Z,12.3
2019-05-02T19:38:22.472Z,11.5
2019-05-02T19:40:20.002Z,11.2
2019-05-02T19:42:22.410Z,12.9
2019-05-02T19:44:21.059Z,12.7
2019-05-02T19:46:17.806Z,12
2019-05-02T19:48:19.438Z,11.5
2019-05-02T19:50:18.902Z,9.7
2019-05-02T19:52:18.319Z,12.3
2019-05-02T19:54:18.128Z,12.1
2019-05-02T19:56:17.890Z,11.5
2019-05-02T19:58:17.532Z,12
2019-05-02T20:00:19.425Z,11.1
2019-05-02T20:02:18.915Z,10.3
2019-05-02T20:04:18.381Z,11.6
2019-05-02T20:06:18.134Z,11.4
2019-05-02T20:08:21.042Z,11.2
2019-05-02T20:10:18.140Z,11.5
2019-05-02T20:12:19.335Z,10.4
2019-05-02T20:14:18.760Z,11.1
2019-05-02T20:16:18.497Z,11.2
2019-05-02T20:18:18.111Z,12.1
2019-05-02T20:20:17.797Z,10.8
2019-05-02T20:22:19.415Z,11.4
2019-05-02T20:24:19.547Z,10.9
2019-05-02T20:26:18.659Z,10.8
2019-05-02T20:28:18.320Z,11.2
2019-05-02T20:30:18.148Z,10
2019-05-02T20:32:17.846Z,10.6
2019-05-02T20:34:17.506Z,11.2
2019-05-02T20:36:19.076Z,10.1
2019-05-02T20:38:18.507Z,10.9
2019-05-02T20:40:18.239Z,10.9
2019-05-02T20:42:17.839Z,13.3
2019-05-02T20:44:17.480Z,11.7
2019-05-02T20:46:18.992Z,11.2
2019-05-02T20:48:18.444Z,11.3
2019-05-02T20:50:18.168Z,12.9
2019-05-02T20:52:17.836Z,11.1
2019-05-02T20:54:17.490Z,9.8
2019-05-02T20:56:18.863Z,9.5
2019-05-02T20:58:18.316Z,7.2
2019-05-02T21:00:18.036Z,6.3
2019-05-02T21:02:17.680Z,5.9
2019-05-02T21:04:17.448Z,6.2
2019-05-02T21:06:18.905Z,5.5
2019-05-02T21:08:18.317Z,5.7
2019-05-02T21:10:18.096Z,6.4
2019-05-02T21:12:17.811Z,5.9
2019-05-02T21:14:17.462Z,5.6
2019-05-02T21:16:18.862Z,4.9
2019-05-02T21:18:18.338Z,5.4
2019-05-02T21:20:18.102Z,4.4
2019-05-02T21:22:17.767Z,3.9
2019-05-02T21:24:17.418Z,4.1
2019-05-02T21:26:18.910Z,3.8
2019-05-02T21:28:18.419Z,5.1
2019-05-02T21:30:18.105Z,3.6
2019-05-02T21:32:17.884Z,4.5
2019-05-02T21:34:17.469Z,4.7
2019-05-02T21:36:18.941Z,3.9
2019-05-02T21:38:18.359Z,4.1
2019-05-02T21:40:18.194Z,4.8
2019-05-02T21:42:17.778Z,3.7
2019-05-02T21:44:19.412Z,4.2
2019-05-02T21:46:18.677Z,4.3
2019-05-02T21:48:18.403Z,4.5
2019-05-02T21:50:18.063Z,3.8
2019-05-02T21:52:17.836Z,3.1
2019-05-02T21:54:17.611Z,3.1
2019-05-02T21:56:19.410Z,2.7
2019-05-02T21:58:18.996Z,1.9
2019-05-02T22:00:18.506Z,2.7
2019-05-02T22:02:18.827Z,1.7
2019-05-02T22:04:18.238Z,1.7
2019-05-02T22:06:18.000Z,1.1
2019-05-02T22:08:17.651Z,2.2
2019-05-02T22:10:19.429Z,0.8
2019-05-02T22:12:18.752Z,1.1
2019-05-02T22:14:18.371Z,0.8
2019-05-02T22:16:18.183Z,0.9
2019-05-02T22:18:17.663Z,1.5
2019-05-02T22:20:19.467Z,0.9
2019-05-02T22:22:18.854Z,1.1
2019-05-02T22:24:18.223Z,1.3
2019-05-02T22:26:17.924Z,0.8
2019-05-02T22:28:17.512Z,1.1
2019-05-02T22:30:19.315Z,1.1
2019-05-02T22:32:18.725Z,0.9
2019-05-02T22:34:18.462Z,0.9
2019-05-02T22:36:18.252Z,0.9
2019-05-02T22:38:17.878Z,1.1
2019-05-02T22:40:17.691Z,0.8
2019-05-02T22:42:19.277Z,0.7
2019-05-02T22:44:18.692Z,0.7
2019-05-02T22:46:18.416Z,0.8
2019-05-02T22:48:18.053Z,1
2019-05-02T22:50:17.837Z,0.6
2019-05-02T22:52:17.484Z,0.7
2019-05-02T22:54:27.560Z,0.7
2019-05-02T22:56:18.844Z,0.7
2019-05-02T22:58:18.181Z,1
2019-05-02T23:00:17.801Z,0.8
2019-05-02T23:02:17.506Z,1
2019-05-02T23:04:19.266Z,0.8
2019-05-02T23:06:18.425Z,0.6
2019-05-02T23:08:18.255Z,0.7
2019-05-02T23:10:17.999Z,1
2019-05-02T23:12:17.632Z,0.5
2019-05-02T23:14:19.394Z,0.8
2019-05-02T23:16:18.424Z,1.1
2019-05-02T23:18:18.078Z,0.7
2019-05-02T23:20:17.705Z,0.7
2019-05-02T23:22:19.344Z,1
2019-05-02T23:24:18.739Z,0.9
2019-05-02T23:26:18.505Z,0.7
2019-05-02T23:28:18.196Z,1.9
2019-05-02T23:30:17.951Z,0.7
2019-05-02T23:32:17.517Z,0.9
2019-05-02T23:34:19.303Z,1.1
2019-05-02T23:36:18.457Z,0.9
2019-05-02T23:38:18.217Z,0.9
2019-05-02T23:40:18.022Z,1
2019-05-02T23:42:17.692Z,0.9
2019-05-02T23:44:19.362Z,1.2
2019-05-02T23:46:18.749Z,1
2019-05-02T23:48:18.375Z,0.9
2019-05-02T23:50:18.157Z,1.1
2019-05-02T23:52:17.765Z,0.7
2019-05-02T23:54:17.391Z,1.2
2019-05-02T23:56:18.544Z,1.1
2019-05-02T23:58:18.172Z,1.1
